TimeICT,TemperatureF,Dew PointF,Humidity,Sea Level PressureIn,VisibilityMPH,Wind Direction,Wind SpeedMPH,Gust SpeedMPH,PrecipitationIn,Events,Conditions,WindDirDegrees,DateUTC
12:00 AM,84.2,78.8,84,29.74,5.6,Variable,1.2,-,N/A,,Scattered Clouds,0,2013-05-13 17:00:00
12:30 AM,84.2,78.8,84,29.71,5.6,ESE,2.3,-,N/A,,Scattered Clouds,120,2013-05-13 17:30:00
1:00 AM,82.4,78.8,89,29.71,5.6,Calm,Calm,-,N/A,,Scattered Clouds,0,2013-05-13 18:00:00
7:00 AM,84.2,77.0,79,29.71,6.2,North,4.6,-,N/A,,Partly Cloudy,370,2013-05-14 00:00:00
7:30 AM,87.8,75.2,66,29.74,-9999.0,West,5.8,-,N/A,,Clear,270,2013-05-14 00:30:00
8:00 AM,89.6,75.2,62,29.74,-9999.0,WNW,3.5,-,N/A,,Clear,300,2013-05-14 01:00:00
8:30 AM,89.6,75.2,62,29.74,-9999.0,WNW,4.6,-,N/A,,Clear,290,2013-05-14 01:30:00
9:00 AM,91.4,75.2,59,29.74,-9999.0,West,6.9,-,N/A,,Clear,260,2013-05-14 02:00:00
9:30 AM,91.4,73.4,55,29.74,-9999.0,NNW,4.6,-,N/A,,Clear,330,2013-05-14 02:30:00
10:00 AM,93.2,73.4,52,29.74,-9999.0,WNW,4.6,-,N/A,,Clear,290,2013-05-14 03:00:00
10:30 AM,95.0,73.4,49,29.74,6.2,NW,12.7,-,N/A,,Partly Cloudy,310,2013-05-14 03:30:00
11:00 AM,95.0,71.6,47,29.74,6.2,WSW,8.1,-,N/A,,Partly Cloudy,240,2013-05-14 04:00:00
11:30 AM,96.8,69.8,41,29.71,6.2,West,8.1,-,N/A,,Partly Cloudy,260,2013-05-14 04:30:00
12:00 PM,96.8,69.8,41,29.71,6.2,West,10.4,-,N/A,,Partly Cloudy,270,2013-05-14 05:00:00
12:30 PM,98.6,69.8,39,29.68,6.2,West,8.1,-,N/A,,Scattered Clouds,270,2013-05-14 05:30:00
1:00 PM,98.6,69.8,39,29.65,6.2,WNW,8.1,-,N/A,,Scattered Clouds,290,2013-05-14 06:00:00
1:30 PM,98.6,69.8,39,29.65,6.2,West,13.8,-,N/A,,Partly Cloudy,280,2013-05-14 06:30:00
2:00 PM,98.6,69.8,39,29.62,6.2,WNW,6.9,-,N/A,,Partly Cloudy,300,2013-05-14 07:00:00
2:30 PM,98.6,69.8,39,29.62,6.2,SSW,9.2,-,N/A,,Partly Cloudy,210,2013-05-14 07:30:00
3:00 PM,100.4,68.0,35,29.59,6.2,WNW,5.8,-,N/A,,Partly Cloudy,300,2013-05-14 08:00:00
3:30 PM,100.4,68.0,35,29.59,6.2,WNW,6.9,-,N/A,,Partly Cloudy,290,2013-05-14 08:30:00
4:00 PM,100.4,68.0,35,29.59,6.2,West,8.1,-,N/A,,Partly Cloudy,260,2013-05-14 09:00:00
4:30 PM,100.4,68.0,35,29.56,6.2,WSW,9.2,-,N/A,,Scattered Clouds,250,2013-05-14 09:30:00
5:00 PM,98.6,68.0,37,29.56,6.2,SW,10.4,-,N/A,,Scattered Clouds,230,2013-05-14 10:00:00
5:30 PM,98.6,68.0,37,29.59,6.2,WSW,12.7,-,N/A,,Scattered Clouds,250,2013-05-14 10:30:00
6:00 PM,96.8,68.0,39,29.59,6.2,WSW,6.9,-,N/A,,Scattered Clouds,250,2013-05-14 11:00:00
6:30 PM,95.0,69.8,44,29.59,6.2,SW,5.8,-,N/A,,Scattered Clouds,230,2013-05-14 11:30:00
7:00 PM,93.2,69.8,46,29.59,6.2,WSW,4.6,-,N/A,,Scattered Clouds,240,2013-05-14 12:00:00
7:30 PM,93.2,69.8,46,29.62,6.2,SW,3.5,-,N/A,,Scattered Clouds,230,2013-05-14 12:30:00
8:00 PM,91.4,73.4,55,29.62,6.2,West,6.9,-,N/A,,Scattered Clouds,260,2013-05-14 13:00:00
8:30 PM,89.6,73.4,59,29.65,6.2,SW,4.6,-,N/A,,Scattered Clouds,220,2013-05-14 13:30:00
9:00 PM,87.8,75.2,66,29.65,5.6,WSW,5.8,-,N/A,,Scattered Clouds,250,2013-05-14 14:00:00
9:30 PM,87.8,75.2,66,29.65,5.6,WSW,6.9,-,N/A,,Scattered Clouds,250,2013-05-14 14:30:00
10:00 PM,87.8,75.2,66,29.65,5.6,WSW,8.1,-,N/A,,Scattered Clouds,250,2013-05-14 15:00:00
10:30 PM,87.8,75.2,66,29.68,5.6,West,5.8,-,N/A,,Scattered Clouds,270,2013-05-14 15:30:00
11:00 PM,86.0,75.2,70,29.68,5.6,West,6.9,-,N/A,,Scattered Clouds,260,2013-05-14 16:00:00
11:30 PM,86.0,75.2,70,29.68,5.6,WSW,4.6,-,N/A,,Scattered Clouds,250,2013-05-14 16:30:00